createdAt,value
2018-12-31T00:00:09.912Z,68.00
2018-12-31T00:02:40.101Z,68.00
2018-12-31T00:05:09.726Z,68.00
2018-12-31T00:07:39.139Z,68.10
2018-12-31T00:10:09.356Z,68.10
2018-12-31T00:12:38.743Z,68.10
2018-12-31T00:15:09.248Z,68.20
2018-12-31T00:17:38.619Z,68.30
2018-12-31T00:20:08.259Z,68.30
2018-12-31T00:22:38.054Z,68.50
2018-12-31T00:25:07.687Z,68.50
2018-12-31T00:27:37.067Z,68.50
2018-12-31T00:30:07.653Z,68.60
2018-12-31T00:32:37.025Z,68.60
2018-12-31T00:35:06.409Z,69.30
2018-12-31T00:37:36.058Z,68.70
2018-12-31T00:40:06.079Z,68.70
2018-12-31T00:42:35.445Z,68.80
2018-12-31T00:45:05.788Z,68.80
2018-12-31T00:47:35.156Z,68.80
2018-12-31T00:50:05.186Z,68.90
2018-12-31T00:52:34.587Z,68.80
2018-12-31T00:55:03.966Z,68.90
2018-12-31T00:57:33.372Z,69.00
2018-12-31T01:00:02.847Z,69.00
2018-12-31T01:02:32.226Z,69.00
2018-12-31T01:05:01.606Z,69.10
2018-12-31T01:07:31.598Z,69.00
2018-12-31T01:10:01.049Z,69.00
2018-12-31T01:12:30.417Z,69.00
2018-12-31T01:14:59.824Z,69.10
2018-12-31T01:17:29.200Z,69.00
2018-12-31T01:19:58.570Z,69.00
2018-12-31T01:22:27.981Z,69.10
2018-12-31T01:24:57.355Z,69.10
2018-12-31T01:27:26.742Z,69.10
2018-12-31T01:29:56.141Z,69.10
2018-12-31T01:32:25.515Z,69.00
2018-12-31T01:34:54.889Z,69.00
2018-12-31T01:37:24.289Z,69.00
2018-12-31T01:39:53.662Z,69.10
2018-12-31T01:42:23.047Z,69.10
2018-12-31T01:44:52.448Z,69.10
2018-12-31T01:47:21.826Z,69.10
2018-12-31T01:49:51.205Z,69.20
2018-12-31T01:52:20.909Z,69.30
2018-12-31T01:54:50.280Z,69.30
2018-12-31T01:57:19.662Z,69.30
2018-12-31T01:59:49.069Z,69.30
2018-12-31T02:02:18.449Z,69.40
2018-12-31T02:04:47.867Z,69.50
2018-12-31T02:07:17.263Z,69.50
2018-12-31T02:09:46.957Z,69.50
2018-12-31T02:12:16.347Z,69.50
2018-12-31T02:14:46.196Z,69.40
2018-12-31T02:17:15.572Z,69.50
2018-12-31T02:19:44.954Z,69.50
2018-12-31T02:22:14.460Z,69.50
2018-12-31T02:24:43.838Z,69.50
2018-12-31T02:27:13.215Z,69.30
2018-12-31T02:29:42.631Z,70.10
2018-12-31T02:32:12.010Z,69.30
2018-12-31T02:34:41.414Z,69.30
2018-12-31T02:37:11.336Z,69.30
2018-12-31T02:39:41.020Z,69.40
2018-12-31T02:42:10.394Z,69.40
2018-12-31T02:44:39.791Z,69.40
2018-12-31T02:47:09.170Z,69.30
2018-12-31T02:49:38.543Z,69.40
2018-12-31T02:52:07.940Z,69.30
2018-12-31T02:54:37.321Z,69.40
2018-12-31T02:57:06.797Z,69.30
2018-12-31T02:59:36.653Z,69.30
2018-12-31T03:02:06.028Z,69.20
2018-12-31T03:04:35.403Z,69.20
2018-12-31T03:07:05.126Z,69.30
2018-12-31T03:09:34.754Z,69.30
2018-12-31T03:12:04.772Z,69.30
2018-12-31T03:14:34.180Z,69.40
2018-12-31T03:17:03.572Z,69.40
2018-12-31T03:19:33.298Z,69.40
2018-12-31T03:22:02.992Z,69.50
2018-12-31T03:24:32.366Z,69.40
2018-12-31T03:27:01.744Z,69.50
2018-12-31T03:29:31.136Z,69.50
2018-12-31T03:32:00.518Z,69.50
2018-12-31T03:34:29.898Z,69.50
2018-12-31T03:36:59.287Z,69.60
2018-12-31T03:39:28.667Z,69.60
2018-12-31T03:41:58.040Z,69.60
2018-12-31T03:44:27.776Z,69.50
2018-12-31T03:46:57.448Z,69.50
2018-12-31T03:49:26.818Z,69.60
2018-12-31T03:51:56.230Z,69.50
2018-12-31T03:54:25.617Z,69.50
2018-12-31T03:56:55.258Z,68.80
2018-12-31T03:59:24.648Z,69.50
2018-12-31T04:01:54.045Z,69.60
2018-12-31T04:04:23.414Z,69.60
2018-12-31T04:06:52.819Z,69.60
2018-12-31T04:09:22.203Z,69.60
2018-12-31T04:11:51.577Z,69.60
2018-12-31T04:14:21.222Z,69.60
2018-12-31T04:16:50.594Z,69.70
2018-12-31T04:19:19.967Z,69.60
2018-12-31T04:21:49.711Z,69.60
2018-12-31T04:24:19.081Z,69.60
2018-12-31T04:26:48.459Z,69.50
2018-12-31T04:29:18.156Z,69.60
2018-12-31T04:31:47.532Z,69.50
2018-12-31T04:34:16.905Z,69.50
2018-12-31T04:36:46.313Z,69.60
2018-12-31T04:39:15.687Z,69.80
2018-12-31T04:41:45.068Z,69.70
2018-12-31T04:44:14.447Z,69.60
2018-12-31T04:46:43.830Z,69.60
2018-12-31T04:49:13.203Z,69.60
2018-12-31T04:51:42.607Z,69.60
2018-12-31T04:54:11.984Z,69.80
2018-12-31T04:56:41.352Z,69.30
2018-12-31T04:59:10.782Z,69.70
2018-12-31T05:01:40.120Z,69.70
2018-12-31T05:04:09.499Z,69.60
2018-12-31T05:06:39.157Z,69.70
2018-12-31T05:09:08.533Z,69.60
2018-12-31T05:11:37.907Z,69.60
2018-12-31T05:14:07.583Z,69.80
2018-12-31T05:16:36.991Z,69.60
2018-12-31T05:19:06.368Z,69.80
2018-12-31T05:21:35.751Z,69.90
2018-12-31T05:24:05.129Z,70.00
2018-12-31T05:26:34.502Z,70.00
2018-12-31T05:29:04.191Z,70.10
2018-12-31T05:31:33.567Z,70.10
2018-12-31T05:34:02.942Z,70.30
2018-12-31T05:36:32.552Z,70.20
2018-12-31T05:39:01.924Z,70.40
2018-12-31T05:41:31.299Z,70.40
2018-12-31T05:44:00.701Z,70.60
2018-12-31T05:46:30.065Z,70.70
2018-12-31T05:48:59.437Z,70.80
2018-12-31T05:51:28.838Z,70.70
2018-12-31T05:53:58.218Z,70.80
2018-12-31T05:56:27.591Z,70.90
2018-12-31T05:58:57.010Z,70.80
2018-12-31T06:01:26.385Z,71.00
2018-12-31T06:03:55.757Z,71.80
2018-12-31T06:06:25.139Z,71.00
2018-12-31T06:08:54.519Z,71.00
2018-12-31T06:11:23.901Z,71.10
2018-12-31T06:13:53.289Z,71.20
2018-12-31T06:16:22.661Z,71.10
2018-12-31T06:18:52.480Z,71.00
2018-12-31T06:21:22.213Z,71.00
2018-12-31T06:23:51.596Z,71.10
2018-12-31T06:26:21.280Z,71.10
2018-12-31T06:28:50.682Z,71.20
2018-12-31T06:31:20.062Z,71.20
2018-12-31T06:33:49.453Z,71.10
2018-12-31T06:36:18.854Z,71.10
2018-12-31T06:38:48.218Z,71.10
2018-12-31T06:41:17.601Z,71.10
2018-12-31T06:43:47.340Z,71.00
2018-12-31T06:46:16.732Z,71.10
2018-12-31T06:48:46.421Z,71.10
2018-12-31T06:51:15.810Z,71.10
2018-12-31T06:53:45.193Z,71.20
2018-12-31T06:56:14.574Z,71.30
2018-12-31T06:58:44.002Z,71.20
2018-12-31T07:01:13.421Z,71.40
2018-12-31T07:03:42.789Z,71.30
2018-12-31T07:06:12.550Z,71.40
2018-12-31T07:08:42.303Z,71.20
2018-12-31T07:11:11.682Z,71.30
2018-12-31T07:13:41.081Z,71.30
2018-12-31T07:16:10.468Z,71.20
2018-12-31T07:18:39.851Z,71.20
2018-12-31T07:21:09.515Z,71.10
2018-12-31T07:23:38.913Z,71.20
2018-12-31T07:26:09.958Z,71.00
2018-12-31T07:28:39.566Z,70.90
2018-12-31T07:31:08.951Z,71.00
2018-12-31T07:33:38.334Z,71.00
2018-12-31T07:36:07.742Z,70.90
2018-12-31T07:38:37.133Z,71.00
2018-12-31T07:41:06.515Z,71.00
2018-12-31T07:43:35.923Z,71.10
2018-12-31T07:46:05.334Z,71.00
2018-12-31T07:48:34.724Z,71.00
2018-12-31T07:51:04.566Z,71.00
2018-12-31T07:53:33.960Z,71.00
2018-12-31T07:56:03.413Z,70.90
2018-12-31T07:58:33.110Z,71.00
2018-12-31T08:01:02.495Z,70.90
2018-12-31T08:03:31.865Z,70.90
2018-12-31T08:06:01.258Z,70.90
2018-12-31T08:08:30.637Z,70.80
2018-12-31T08:11:00.019Z,70.70
2018-12-31T08:13:29.442Z,70.70
2018-12-31T08:15:58.827Z,70.60
2018-12-31T08:18:28.206Z,70.60
2018-12-31T08:20:57.605Z,70.60
2018-12-31T08:23:27.446Z,70.50
2018-12-31T08:25:56.859Z,70.60
2018-12-31T08:28:26.661Z,70.30
2018-12-31T08:30:56.068Z,70.30
2018-12-31T08:33:25.452Z,70.20
2018-12-31T08:35:55.300Z,70.20
2018-12-31T08:38:24.703Z,70.10
2018-12-31T08:40:54.223Z,70.10
2018-12-31T08:43:23.571Z,70.00
2018-12-31T08:45:53.004Z,70.00
2018-12-31T08:48:22.430Z,69.80
2018-12-31T08:50:52.098Z,69.80
2018-12-31T08:53:21.469Z,69.70
2018-12-31T08:55:50.862Z,69.70
2018-12-31T08:58:20.320Z,69.60
2018-12-31T09:00:49.947Z,69.60
2018-12-31T09:03:19.329Z,69.50
2018-12-31T09:05:48.733Z,69.60
2018-12-31T09:08:18.116Z,69.30
2018-12-31T09:10:47.497Z,69.20
2018-12-31T09:13:16.888Z,69.10
2018-12-31T09:15:46.332Z,69.20
2018-12-31T09:18:15.955Z,68.90
2018-12-31T09:20:46.223Z,68.80
2018-12-31T09:23:15.605Z,68.70
2018-12-31T09:25:45.906Z,68.70
2018-12-31T09:28:15.321Z,68.50
2018-12-31T09:30:44.711Z,68.40
2018-12-31T09:33:14.103Z,68.40
2018-12-31T09:35:43.524Z,68.40
2018-12-31T09:38:12.909Z,68.20
2018-12-31T09:40:42.283Z,68.10
2018-12-31T09:43:11.948Z,68.00
2018-12-31T09:45:41.338Z,68.00
2018-12-31T09:48:10.753Z,67.80
2018-12-31T09:50:40.144Z,67.60
2018-12-31T09:53:09.530Z,67.50
2018-12-31T09:55:38.941Z,67.60
2018-12-31T09:58:08.332Z,67.80
2018-12-31T10:00:37.713Z,67.70
2018-12-31T10:03:07.097Z,67.70
2018-12-31T10:05:36.874Z,67.70
2018-12-31T10:08:06.253Z,67.70
2018-12-31T10:10:35.640Z,67.60
2018-12-31T10:13:05.105Z,67.40
2018-12-31T10:15:34.481Z,67.20
2018-12-31T10:18:03.867Z,67.10
2018-12-31T10:20:33.256Z,66.90
2018-12-31T10:23:02.661Z,66.60
2018-12-31T10:25:32.116Z,66.50
2018-12-31T10:28:02.492Z,66.20
2018-12-31T10:30:31.791Z,66.10
2018-12-31T10:33:01.169Z,66.30
2018-12-31T10:35:30.562Z,66.00
2018-12-31T10:38:00.177Z,65.50
2018-12-31T10:40:29.560Z,65.60
2018-12-31T10:42:58.974Z,66.20
2018-12-31T10:45:28.363Z,65.60
2018-12-31T10:47:57.745Z,65.60
2018-12-31T10:50:27.385Z,65.70
2018-12-31T10:52:56.837Z,65.50
2018-12-31T10:55:26.213Z,65.30
2018-12-31T10:57:55.602Z,65.10
2018-12-31T11:00:24.999Z,64.90
2018-12-31T11:02:54.377Z,64.60
2018-12-31T11:05:23.767Z,64.40
2018-12-31T11:07:53.160Z,64.40
2018-12-31T11:10:22.543Z,64.40
2018-12-31T11:12:51.959Z,64.30
2018-12-31T11:15:21.363Z,64.20
2018-12-31T11:17:50.735Z,64.30
2018-12-31T11:20:20.153Z,64.40
2018-12-31T11:22:49.540Z,64.50
2018-12-31T11:25:18.915Z,64.30
2018-12-31T11:27:48.318Z,64.30
2018-12-31T11:30:18.385Z,64.00
2018-12-31T11:32:47.758Z,64.30
2018-12-31T11:35:17.462Z,64.50
2018-12-31T11:37:46.886Z,64.30
2018-12-31T11:40:16.224Z,64.20
2018-12-31T11:42:45.666Z,64.00
2018-12-31T11:45:14.992Z,64.00
2018-12-31T11:47:44.371Z,63.90
2018-12-31T11:50:13.782Z,64.20
2018-12-31T11:52:43.255Z,63.90
2018-12-31T11:55:12.638Z,64.00
2018-12-31T11:57:42.581Z,63.90
2018-12-31T12:00:11.958Z,63.90
2018-12-31T12:02:41.343Z,63.70
2018-12-31T12:05:10.739Z,63.60
2018-12-31T12:07:40.170Z,63.70
2018-12-31T12:10:09.650Z,63.40
2018-12-31T12:12:39.046Z,62.10
2018-12-31T12:15:09.060Z,63.20
2018-12-31T12:17:38.432Z,63.00
2018-12-31T12:20:09.143Z,63.20
2018-12-31T12:22:38.518Z,63.00
2018-12-31T12:25:08.223Z,63.00
2018-12-31T12:27:37.616Z,63.10
2018-12-31T12:30:09.251Z,63.10
2018-12-31T12:32:40.078Z,63.10
2018-12-31T12:35:09.446Z,63.30
2018-12-31T12:37:38.828Z,63.20
2018-12-31T12:40:09.339Z,63.20
2018-12-31T12:42:38.810Z,63.30
2018-12-31T12:45:09.515Z,63.30
2018-12-31T12:47:38.866Z,63.20
2018-12-31T12:50:09.091Z,63.30
2018-12-31T12:52:38.476Z,63.30
2018-12-31T12:55:08.099Z,63.30
2018-12-31T12:57:37.513Z,63.20
2018-12-31T13:00:07.520Z,63.10
2018-12-31T13:02:36.893Z,63.10
2018-12-31T13:05:06.548Z,63.20
2018-12-31T13:07:36.306Z,63.20
2018-12-31T13:10:07.036Z,63.00
2018-12-31T13:12:36.813Z,62.80
2018-12-31T13:15:07.054Z,63.00
2018-12-31T13:17:36.463Z,62.80
2018-12-31T13:20:06.312Z,62.80
2018-12-31T13:22:35.683Z,62.80
2018-12-31T13:25:05.461Z,62.70
2018-12-31T13:27:35.109Z,62.80
2018-12-31T13:30:05.523Z,62.90
2018-12-31T13:32:34.918Z,63.20
2018-12-31T13:35:04.609Z,63.10
2018-12-31T13:37:33.982Z,63.00
2018-12-31T13:40:03.358Z,63.20
2018-12-31T13:42:32.755Z,63.40
2018-12-31T13:45:02.135Z,63.40
2018-12-31T13:47:31.532Z,63.30
2018-12-31T13:50:00.944Z,63.20
2018-12-31T13:52:30.408Z,63.10
2018-12-31T13:55:00.166Z,63.70
2018-12-31T13:57:29.568Z,63.00
2018-12-31T13:59:58.941Z,62.70
2018-12-31T14:02:28.323Z,62.70
2018-12-31T14:04:57.806Z,62.60
2018-12-31T14:07:28.359Z,62.50
2018-12-31T14:09:57.730Z,62.40
2018-12-31T14:12:27.333Z,62.40
2018-12-31T14:14:56.717Z,62.20
2018-12-31T14:17:26.101Z,62.20
2018-12-31T14:19:55.515Z,62.20
2018-12-31T14:22:24.897Z,62.20
2018-12-31T14:24:54.350Z,62.10
2018-12-31T14:27:24.016Z,62.40
2018-12-31T14:29:53.388Z,62.40
2018-12-31T14:32:22.771Z,62.50
2018-12-31T14:34:52.346Z,62.50
2018-12-31T14:37:23.001Z,62.40
2018-12-31T14:39:52.377Z,62.40
2018-12-31T14:42:22.147Z,63.20
2018-12-31T14:44:51.526Z,62.50
2018-12-31T14:47:20.913Z,62.40
2018-12-31T14:49:50.298Z,62.40
2018-12-31T14:52:19.671Z,62.40
2018-12-31T14:54:49.338Z,62.50
2018-12-31T14:57:19.050Z,62.60
2018-12-31T14:59:48.428Z,62.90
2018-12-31T15:02:17.817Z,63.10
2018-12-31T15:04:47.211Z,63.40
2018-12-31T15:07:16.599Z,63.60
2018-12-31T15:09:45.972Z,63.90
2018-12-31T15:12:15.368Z,64.10
2018-12-31T15:14:44.740Z,64.20
2018-12-31T15:17:14.434Z,64.40
2018-12-31T15:19:44.119Z,64.50
2018-12-31T15:22:13.498Z,64.80
2018-12-31T15:24:43.152Z,65.30
2018-12-31T15:27:12.555Z,65.50
2018-12-31T15:29:41.929Z,65.80
2018-12-31T15:32:11.317Z,65.90
2018-12-31T15:34:40.714Z,66.10
2018-12-31T15:37:10.087Z,66.30
2018-12-31T15:39:40.520Z,66.50
2018-12-31T15:42:10.454Z,66.60
2018-12-31T15:44:39.834Z,66.80
2018-12-31T15:47:09.342Z,67.00
2018-12-31T15:49:38.714Z,67.10
2018-12-31T15:52:08.110Z,67.20
2018-12-31T15:54:37.765Z,67.40
2018-12-31T15:57:07.187Z,67.40
2018-12-31T15:59:36.567Z,67.50
2018-12-31T16:02:05.956Z,67.70
2018-12-31T16:04:35.657Z,67.70
2018-12-31T16:07:05.417Z,67.80
2018-12-31T16:09:34.805Z,68.60
2018-12-31T16:12:04.210Z,67.80
2018-12-31T16:14:33.586Z,67.80
2018-12-31T16:17:02.978Z,68.00
2018-12-31T16:19:32.679Z,67.80
2018-12-31T16:22:02.070Z,68.10
2018-12-31T16:24:31.442Z,68.10
2018-12-31T16:27:01.139Z,68.20
2018-12-31T16:29:30.546Z,68.20
2018-12-31T16:32:00.319Z,68.30
2018-12-31T16:34:29.713Z,68.30
2018-12-31T16:36:59.125Z,68.40
2018-12-31T16:39:28.485Z,68.60
2018-12-31T16:41:58.784Z,68.70
2018-12-31T16:44:28.187Z,68.80
2018-12-31T16:46:57.563Z,68.80
2018-12-31T16:49:27.008Z,68.80
2018-12-31T16:52:02.632Z,68.90
2018-12-31T16:54:27.581Z,68.90
2018-12-31T16:56:56.975Z,68.90
2018-12-31T16:59:26.364Z,69.00
2018-12-31T17:01:55.747Z,69.00
2018-12-31T17:04:25.142Z,69.00
2018-12-31T17:06:54.535Z,68.90
2018-12-31T17:09:23.918Z,69.00
2018-12-31T17:11:53.379Z,69.00
2018-12-31T17:14:22.764Z,69.00
2018-12-31T17:16:52.157Z,69.00
2018-12-31T17:19:21.560Z,69.00
2018-12-31T17:21:50.946Z,69.00
2018-12-31T17:24:20.325Z,69.00
2018-12-31T17:26:49.729Z,69.20
2018-12-31T17:29:19.188Z,69.30
2018-12-31T17:31:48.584Z,69.40
2018-12-31T17:34:18.000Z,69.40
2018-12-31T17:36:47.390Z,69.40
2018-12-31T17:39:16.802Z,69.60
2018-12-31T17:41:46.175Z,69.60
2018-12-31T17:44:16.992Z,69.70
2018-12-31T17:46:46.375Z,69.80
2018-12-31T17:49:15.767Z,69.80
2018-12-31T17:51:45.153Z,69.90
2018-12-31T17:54:14.810Z,70.00
2018-12-31T17:56:44.774Z,70.10
2018-12-31T17:59:14.178Z,70.20
2018-12-31T18:01:43.566Z,70.30
2018-12-31T18:04:12.973Z,70.40
2018-12-31T18:06:43.471Z,70.50
2018-12-31T18:09:13.348Z,70.50
2018-12-31T18:11:42.754Z,70.60
2018-12-31T18:14:12.138Z,70.60
2018-12-31T18:16:41.525Z,70.10
2018-12-31T18:19:11.039Z,70.70
2018-12-31T18:21:40.657Z,70.70
2018-12-31T18:24:10.028Z,70.70
2018-12-31T18:26:39.424Z,70.90
2018-12-31T18:29:08.808Z,70.90
2018-12-31T18:31:38.208Z,70.90
2018-12-31T18:34:07.786Z,70.90
2018-12-31T18:36:37.176Z,70.90
2018-12-31T18:39:07.701Z,70.90
2018-12-31T18:41:37.871Z,70.90
2018-12-31T18:44:07.250Z,71.00
2018-12-31T18:46:37.339Z,71.10
2018-12-31T18:49:06.997Z,71.10
2018-12-31T18:51:36.385Z,71.20
2018-12-31T18:54:05.781Z,71.30
2018-12-31T18:56:35.187Z,71.30
2018-12-31T18:59:04.573Z,71.30
2018-12-31T19:01:33.969Z,71.30
2018-12-31T19:04:03.402Z,71.30
2018-12-31T19:06:32.783Z,71.30
2018-12-31T19:09:02.173Z,71.50
2018-12-31T19:11:31.574Z,71.40
2018-12-31T19:14:00.973Z,71.30
2018-12-31T19:16:30.707Z,71.50
2018-12-31T19:19:00.558Z,71.50
2018-12-31T19:21:30.268Z,71.50
2018-12-31T19:23:59.651Z,71.60
2018-12-31T19:26:29.087Z,71.60
2018-12-31T19:28:58.471Z,71.70
2018-12-31T19:31:27.853Z,71.70
2018-12-31T19:33:57.276Z,71.60
2018-12-31T19:36:26.670Z,71.80
2018-12-31T19:38:56.051Z,71.70
2018-12-31T19:41:25.462Z,71.80
2018-12-31T19:43:54.844Z,71.30
2018-12-31T19:46:24.235Z,72.30
2018-12-31T19:48:54.355Z,71.90
2018-12-31T19:51:23.762Z,72.00
2018-12-31T19:53:53.140Z,71.90
2018-12-31T19:56:22.547Z,71.90
2018-12-31T19:58:51.935Z,72.00
2018-12-31T20:01:21.331Z,72.00
2018-12-31T20:03:51.008Z,72.10
2018-12-31T20:06:20.395Z,72.20
2018-12-31T20:08:49.792Z,72.30
2018-12-31T20:11:19.699Z,72.40
2018-12-31T20:13:49.085Z,72.50
2018-12-31T20:16:18.465Z,72.60
2018-12-31T20:18:47.867Z,72.50
2018-12-31T20:21:17.268Z,72.60
2018-12-31T20:23:46.653Z,72.70
2018-12-31T20:26:16.384Z,72.80
2018-12-31T20:28:45.833Z,73.00
2018-12-31T20:31:15.219Z,72.90
2018-12-31T20:33:45.147Z,73.00
2018-12-31T20:36:14.557Z,73.10
2018-12-31T20:38:44.218Z,73.00
2018-12-31T20:41:13.622Z,73.00
2018-12-31T20:43:43.003Z,73.10
2018-12-31T20:46:12.475Z,73.10
2018-12-31T20:48:41.874Z,73.20
2018-12-31T20:51:11.950Z,73.20
2018-12-31T20:53:41.335Z,73.20
2018-12-31T20:56:11.214Z,73.20
2018-12-31T20:58:40.590Z,73.20
2018-12-31T21:01:09.993Z,73.30
2018-12-31T21:03:39.394Z,73.20
2018-12-31T21:06:08.785Z,73.20
2018-12-31T21:08:38.160Z,73.30
2018-12-31T21:11:07.566Z,73.30
2018-12-31T21:13:36.947Z,73.40
2018-12-31T21:16:06.330Z,73.40
2018-12-31T21:18:37.319Z,73.40
2018-12-31T21:21:06.892Z,73.50
2018-12-31T21:23:36.286Z,73.60
2018-12-31T21:26:05.735Z,73.60
2018-12-31T21:28:35.111Z,73.60
2018-12-31T21:31:04.494Z,73.80
2018-12-31T21:33:33.879Z,73.80
2018-12-31T21:36:03.562Z,73.80
2018-12-31T21:38:32.946Z,73.80
2018-12-31T21:41:02.613Z,73.80
2018-12-31T21:43:32.273Z,73.90
2018-12-31T21:46:01.666Z,73.80
2018-12-31T21:48:31.048Z,73.80
2018-12-31T21:51:00.516Z,73.80
2018-12-31T21:53:31.053Z,73.70
2018-12-31T21:56:00.492Z,73.70
2018-12-31T21:58:29.845Z,73.60
2018-12-31T22:00:59.245Z,73.60
2018-12-31T22:03:28.975Z,73.60
2018-12-31T22:05:58.400Z,73.60
2018-12-31T22:08:27.772Z,73.50
2018-12-31T22:10:57.171Z,73.50
2018-12-31T22:13:26.561Z,74.20
2018-12-31T22:15:56.252Z,73.50
2018-12-31T22:18:25.963Z,73.50
2018-12-31T22:20:55.353Z,73.50
2018-12-31T22:23:24.729Z,73.50
2018-12-31T22:25:54.521Z,73.50
2018-12-31T22:28:23.909Z,73.30
2018-12-31T22:30:53.306Z,73.30
2018-12-31T22:33:22.691Z,73.20
2018-12-31T22:35:52.092Z,73.20
2018-12-31T22:38:21.461Z,73.10
2018-12-31T22:40:50.864Z,73.10
2018-12-31T22:43:20.240Z,73.00
2018-12-31T22:45:49.629Z,72.90
2018-12-31T22:48:19.457Z,72.80
2018-12-31T22:50:48.837Z,72.70
2018-12-31T22:53:18.217Z,72.60
2018-12-31T22:55:48.695Z,72.50
2018-12-31T22:58:18.174Z,72.60
2018-12-31T23:00:48.769Z,72.40
2018-12-31T23:03:18.173Z,72.30
2018-12-31T23:05:47.590Z,72.30
2018-12-31T23:08:17.331Z,72.10
2018-12-31T23:10:46.769Z,72.00
2018-12-31T23:13:16.152Z,72.00
2018-12-31T23:15:47.427Z,71.90
2018-12-31T23:18:16.906Z,71.90
2018-12-31T23:20:46.385Z,71.80
2018-12-31T23:23:15.766Z,71.70
2018-12-31T23:25:45.190Z,71.60
2018-12-31T23:28:14.572Z,71.50
2018-12-31T23:30:43.979Z,71.30
2018-12-31T23:33:13.566Z,71.30
2018-12-31T23:35:42.976Z,71.20
2018-12-31T23:38:12.358Z,71.20
2018-12-31T23:40:41.801Z,71.10
2018-12-31T23:43:11.167Z,71.00
2018-12-31T23:45:40.868Z,71.00
2018-12-31T23:48:10.257Z,71.00
2018-12-31T23:50:39.657Z,71.00
2018-12-31T23:53:09.036Z,70.80
2018-12-31T23:55:38.954Z,70.60
2018-12-31T23:58:08.558Z,70.60
